sensor_id;sensor_type;location;lat;lon;timestamp;pressure;altitude;pressure_sealevel;temperature;humidity
43155;BME280;34212;51.018;13.586;2022-12-16T00:01:39;97038.38;;;-1.09;78.48
43155;BME280;34212;51.018;13.586;2022-12-16T00:06:41;97039.91;;;-1.07;78.48
43155;BME280;34212;51.018;13.586;2022-12-16T00:11:42;97036.13;;;-1.03;78.91
43155;BME280;34212;51.018;13.586;2022-12-16T00:16:44;97037.38;;;-0.97;78.73
43155;BME280;34212;51.018;13.586;2022-12-16T00:21:45;97035.31;;;-0.94;78.64
43155;BME280;34212;51.018;13.586;2022-12-16T00:26:47;97035.06;;;-0.90;78.71
43155;BME280;34212;51.018;13.586;2022-12-16T00:31:48;97032.19;;;-0.87;78.55
43155;BME280;34212;51.018;13.586;2022-12-16T00:36:51;97035.41;;;-0.84;78.36
43155;BME280;34212;51.018;13.586;2022-12-16T00:41:52;97041.22;;;-0.80;79.04
43155;BME280;34212;51.018;13.586;2022-12-16T00:46:55;97050.63;;;-0.78;79.05
43155;BME280;34212;51.018;13.586;2022-12-16T00:51:56;97040.81;;;-0.76;78.98
43155;BME280;34212;51.018;13.586;2022-12-16T00:56:58;97037.13;;;-0.73;79.03
43155;BME280;34212;51.018;13.586;2022-12-16T01:01:59;97035.06;;;-0.70;79.07
43155;BME280;34212;51.018;13.586;2022-12-16T01:07:01;97037.44;;;-0.66;78.61
43155;BME280;34212;51.018;13.586;2022-12-16T01:12:03;97047.81;;;-0.65;78.78
43155;BME280;34212;51.018;13.586;2022-12-16T01:17:04;97034.19;;;-0.59;78.91
43155;BME280;34212;51.018;13.586;2022-12-16T01:22:06;97046.31;;;-0.58;78.97
43155;BME280;34212;51.018;13.586;2022-12-16T01:27:08;97032.66;;;-0.61;78.98
43155;BME280;34212;51.018;13.586;2022-12-16T01:32:13;97043.97;;;-0.61;79.25
43155;BME280;34212;51.018;13.586;2022-12-16T01:37:14;97052.78;;;-0.62;78.88
43155;BME280;34212;51.018;13.586;2022-12-16T01:42:19;97042.56;;;-0.65;78.94
43155;BME280;34212;51.018;13.586;2022-12-16T01:47:31;97027.78;;;-0.66;79.07
43155;BME280;34212;51.018;13.586;2022-12-16T01:52:48;97032.78;;;-0.63;79.50
43155;BME280;34212;51.018;13.586;2022-12-16T01:57:56;97025.38;;;-0.58;79.52
43155;BME280;34212;51.018;13.586;2022-12-16T02:02:59;97020.84;;;-0.56;79.33
43155;BME280;34212;51.018;13.586;2022-12-16T02:18:51;97014.81;;;-0.47;79.43
43155;BME280;34212;51.018;13.586;2022-12-16T02:24:37;97014.81;;;-0.47;79.21
43155;BME280;34212;51.018;13.586;2022-12-16T02:29:49;97006.97;;;-0.47;79.21
43155;BME280;34212;51.018;13.586;2022-12-16T02:40:18;96990.97;;;-0.43;79.71
43155;BME280;34212;51.018;13.586;2022-12-16T02:45:27;96996.63;;;-0.38;79.59
43155;BME280;34212;51.018;13.586;2022-12-16T02:50:38;96997.34;;;-0.36;79.46
43155;BME280;34212;51.018;13.586;2022-12-16T03:06:44;96979.16;;;-0.28;79.45
43155;BME280;34212;51.018;13.586;2022-12-16T03:11:48;96977.81;;;-0.22;79.70
43155;BME280;34212;51.018;13.586;2022-12-16T03:16:51;96970.91;;;-0.24;79.61
43155;BME280;34212;51.018;13.586;2022-12-16T03:22:03;96976.53;;;-0.28;80.00
43155;BME280;34212;51.018;13.586;2022-12-16T03:32:33;96968.94;;;-0.31;79.67
43155;BME280;34212;51.018;13.586;2022-12-16T03:37:36;96968.13;;;-0.32;79.92
43155;BME280;34212;51.018;13.586;2022-12-16T03:42:39;96975.03;;;-0.31;79.77
43155;BME280;34212;51.018;13.586;2022-12-16T03:47:47;96969.09;;;-0.33;79.55
43155;BME280;34212;51.018;13.586;2022-12-16T03:52:49;96975.69;;;-0.38;79.73
43155;BME280;34212;51.018;13.586;2022-12-16T03:57:50;96977.75;;;-0.42;80.02
43155;BME280;34212;51.018;13.586;2022-12-16T04:02:52;96979.66;;;-0.44;79.85
43155;BME280;34212;51.018;13.586;2022-12-16T04:07:54;96984.06;;;-0.44;79.74
43155;BME280;34212;51.018;13.586;2022-12-16T04:13:02;96987.13;;;-0.39;79.69
43155;BME280;34212;51.018;13.586;2022-12-16T04:18:22;96990.47;;;-0.37;80.19
43155;BME280;34212;51.018;13.586;2022-12-16T04:23:48;96983.53;;;-0.38;79.95
43155;BME280;34212;51.018;13.586;2022-12-16T04:29:09;96996.38;;;-0.35;79.97
43155;BME280;34212;51.018;13.586;2022-12-16T04:34:10;97000.69;;;-0.34;80.02
43155;BME280;34212;51.018;13.586;2022-12-16T04:39:26;96997.09;;;-0.33;79.76
43155;BME280;34212;51.018;13.586;2022-12-16T04:44:46;97003.97;;;-0.32;79.78
43155;BME280;34212;51.018;13.586;2022-12-16T04:50:07;97007.56;;;-0.33;79.63
43155;BME280;34212;51.018;13.586;2022-12-16T04:55:27;97020.94;;;-0.36;79.78
43155;BME280;34212;51.018;13.586;2022-12-16T05:00:47;97025.47;;;-0.38;79.99
43155;BME280;34212;51.018;13.586;2022-12-16T05:06:07;97032.91;;;-0.43;79.67
43155;BME280;34212;51.018;13.586;2022-12-16T05:11:27;97042.66;;;-0.45;79.67
43155;BME280;34212;51.018;13.586;2022-12-16T05:16:47;97046.38;;;-0.48;79.78
43155;BME280;34212;51.018;13.586;2022-12-16T05:22:09;97051.03;;;-0.52;79.91
43155;BME280;34212;51.018;13.586;2022-12-16T05:27:29;97051.41;;;-0.56;79.64
43155;BME280;34212;51.018;13.586;2022-12-16T05:32:49;97057.50;;;-0.56;79.64
43155;BME280;34212;51.018;13.586;2022-12-16T05:38:09;97046.25;;;-0.67;79.18
43155;BME280;34212;51.018;13.586;2022-12-16T05:43:29;97038.22;;;-0.76;79.14
43155;BME280;34212;51.018;13.586;2022-12-16T05:48:49;97043.69;;;-0.79;78.83
43155;BME280;34212;51.018;13.586;2022-12-16T05:54:09;97047.53;;;-0.83;78.74
43155;BME280;34212;51.018;13.586;2022-12-16T05:59:29;97051.50;;;-0.88;78.62
43155;BME280;34212;51.018;13.586;2022-12-16T06:04:49;97060.31;;;-0.89;78.70
43155;BME280;34212;51.018;13.586;2022-12-16T06:10:09;97063.19;;;-0.93;78.80
43155;BME280;34212;51.018;13.586;2022-12-16T06:15:29;97069.00;;;-0.89;79.00
43155;BME280;34212;51.018;13.586;2022-12-16T06:20:49;97081.00;;;-0.86;78.41
43155;BME280;34212;51.018;13.586;2022-12-16T06:26:09;97086.28;;;-0.98;78.70
43155;BME280;34212;51.018;13.586;2022-12-16T06:31:30;97100.31;;;-0.99;78.63
43155;BME280;34212;51.018;13.586;2022-12-16T06:36:50;97103.63;;;-0.97;78.64
43155;BME280;34212;51.018;13.586;2022-12-16T06:42:09;97101.16;;;-0.98;78.13
43155;BME280;34212;51.018;13.586;2022-12-16T06:47:29;97113.78;;;-1.03;78.47
43155;BME280;34212;51.018;13.586;2022-12-16T06:52:49;97120.13;;;-1.06;78.20
43155;BME280;34212;51.018;13.586;2022-12-16T06:58:10;97124.50;;;-1.06;78.35
43155;BME280;34212;51.018;13.586;2022-12-16T07:03:30;97133.88;;;-1.04;78.21
43155;BME280;34212;51.018;13.586;2022-12-16T07:08:50;97146.03;;;-1.03;78.62
43155;BME280;34212;51.018;13.586;2022-12-16T07:14:10;97151.97;;;-1.01;78.90
43155;BME280;34212;51.018;13.586;2022-12-16T07:19:30;97159.94;;;-1.02;78.52
43155;BME280;34212;51.018;13.586;2022-12-16T07:24:49;97167.66;;;-1.01;79.01
43155;BME280;34212;51.018;13.586;2022-12-16T07:30:10;97182.16;;;-0.97;79.20
43155;BME280;34212;51.018;13.586;2022-12-16T07:35:31;97190.47;;;-0.91;79.11
43155;BME280;34212;51.018;13.586;2022-12-16T07:40:51;97193.41;;;-0.74;79.35
43155;BME280;34212;51.018;13.586;2022-12-16T07:46:11;97194.81;;;-0.70;78.95
43155;BME280;34212;51.018;13.586;2022-12-16T07:51:31;97198.00;;;-0.66;79.54
43155;BME280;34212;51.018;13.586;2022-12-16T07:57:11;97204.44;;;-0.59;79.40
43155;BME280;34212;51.018;13.586;2022-12-16T08:02:31;97210.56;;;-0.49;79.54
43155;BME280;34212;51.018;13.586;2022-12-16T08:07:51;97216.72;;;-0.38;79.57
43155;BME280;34212;51.018;13.586;2022-12-16T08:13:11;97219.53;;;-0.30;79.93
43155;BME280;34212;51.018;13.586;2022-12-16T08:18:32;97223.81;;;-0.29;79.50
43155;BME280;34212;51.018;13.586;2022-12-16T08:23:52;97226.88;;;-0.45;79.73
43155;BME280;34212;51.018;13.586;2022-12-16T08:29:12;97235.72;;;-0.57;80.23
43155;BME280;34212;51.018;13.586;2022-12-16T08:34:45;97230.41;;;-0.67;80.66
43155;BME280;34212;51.018;13.586;2022-12-16T08:40:05;97240.63;;;-0.64;80.44
43155;BME280;34212;51.018;13.586;2022-12-16T08:45:36;97248.94;;;-0.59;80.20
43155;BME280;34212;51.018;13.586;2022-12-16T08:51:00;97243.22;;;-0.53;80.26
43155;BME280;34212;51.018;13.586;2022-12-16T08:56:20;97257.84;;;-0.50;79.81
43155;BME280;34212;51.018;13.586;2022-12-16T09:01:41;97263.06;;;-0.50;79.99
43155;BME280;34212;51.018;13.586;2022-12-16T09:07:01;97269.75;;;-0.46;80.25
43155;BME280;34212;51.018;13.586;2022-12-16T09:12:21;97279.16;;;-0.43;80.00
43155;BME280;34212;51.018;13.586;2022-12-16T09:17:41;97285.81;;;-0.39;80.17
43155;BME280;34212;51.018;13.586;2022-12-16T09:23:02;97291.94;;;-0.29;80.46
43155;BME280;34212;51.018;13.586;2022-12-16T09:28:22;97293.09;;;-0.22;80.34
43155;BME280;34212;51.018;13.586;2022-12-16T09:33:42;97301.44;;;-0.17;80.93
43155;BME280;34212;51.018;13.586;2022-12-16T09:39:02;97310.59;;;-0.11;80.77
43155;BME280;34212;51.018;13.586;2022-12-16T09:44:47;97313.56;;;-0.16;80.34
43155;BME280;34212;51.018;13.586;2022-12-16T09:50:24;97317.41;;;-0.20;80.43
43155;BME280;34212;51.018;13.586;2022-12-16T09:55:45;97324.28;;;-0.51;80.18
43155;BME280;34212;51.018;13.586;2022-12-16T10:01:05;97324.81;;;-0.80;80.85
43155;BME280;34212;51.018;13.586;2022-12-16T10:06:45;97332.53;;;-0.78;80.73
43155;BME280;34212;51.018;13.586;2022-12-16T10:12:43;97334.47;;;-0.80;81.69
43155;BME280;34212;51.018;13.586;2022-12-16T10:29:44;97332.34;;;0.21;83.02
43155;BME280;34212;51.018;13.586;2022-12-16T10:35:40;97338.22;;;0.25;82.57
43155;BME280;34212;51.018;13.586;2022-12-16T10:40:58;97345.72;;;0.18;82.46
43155;BME280;34212;51.018;13.586;2022-12-16T10:46:21;97344.06;;;0.17;82.37
43155;BME280;34212;51.018;13.586;2022-12-16T10:51:43;97345.88;;;0.17;82.39
43155;BME280;34212;51.018;13.586;2022-12-16T10:57:22;97352.31;;;0.13;81.13
43155;BME280;34212;51.018;13.586;2022-12-16T11:02:48;97364.59;;;-0.20;81.45
43155;BME280;34212;51.018;13.586;2022-12-16T11:08:32;97357.50;;;-0.40;81.39
43155;BME280;34212;51.018;13.586;2022-12-16T11:20:24;97362.53;;;-0.71;81.26
43155;BME280;34212;51.018;13.586;2022-12-16T11:25:45;97363.50;;;-0.95;80.96
43155;BME280;34212;51.018;13.586;2022-12-16T11:31:13;97360.63;;;-1.14;80.59
43155;BME280;34212;51.018;13.586;2022-12-16T11:36:37;97362.75;;;-1.30;81.24
43155;BME280;34212;51.018;13.586;2022-12-16T11:42:00;97375.22;;;-1.45;80.63
43155;BME280;34212;51.018;13.586;2022-12-16T11:47:40;97386.38;;;-1.54;81.13
43155;BME280;34212;51.018;13.586;2022-12-16T11:53:01;97389.31;;;-1.59;81.21
43155;BME280;34212;51.018;13.586;2022-12-16T11:58:32;97400.53;;;-1.46;81.59
43155;BME280;34212;51.018;13.586;2022-12-16T12:03:55;97401.03;;;-1.29;82.11
43155;BME280;34212;51.018;13.586;2022-12-16T12:09:21;97391.06;;;-1.13;82.23
43155;BME280;34212;51.018;13.586;2022-12-16T12:20:49;97419.09;;;-1.37;80.86
43155;BME280;34212;51.018;13.586;2022-12-16T12:26:21;97412.38;;;-1.53;80.95
43155;BME280;34212;51.018;13.586;2022-12-16T12:37:41;97420.13;;;-1.87;80.64
43155;BME280;34212;51.018;13.586;2022-12-16T12:43:04;97430.53;;;-1.98;81.36
43155;BME280;34212;51.018;13.586;2022-12-16T12:48:58;97425.06;;;-1.95;80.90
43155;BME280;34212;51.018;13.586;2022-12-16T12:54:29;97438.06;;;-2.06;80.85
43155;BME280;34212;51.018;13.586;2022-12-16T13:00:05;97440.69;;;-2.06;81.10
43155;BME280;34212;51.018;13.586;2022-12-16T13:05:27;97438.50;;;-2.12;80.92
43155;BME280;34212;51.018;13.586;2022-12-16T13:11:10;97450.69;;;-2.24;80.66
43155;BME280;34212;51.018;13.586;2022-12-16T13:16:55;97465.66;;;-2.39;80.56
43155;BME280;34212;51.018;13.586;2022-12-16T13:22:31;97464.09;;;-2.41;81.39
43155;BME280;34212;51.018;13.586;2022-12-16T13:27:54;97466.81;;;-2.43;81.12
43155;BME280;34212;51.018;13.586;2022-12-16T13:33:32;97482.06;;;-2.37;81.32
43155;BME280;34212;51.018;13.586;2022-12-16T13:38:54;97489.16;;;-2.39;80.94
43155;BME280;34212;51.018;13.586;2022-12-16T13:50:36;97508.59;;;-2.43;81.13
43155;BME280;34212;51.018;13.586;2022-12-16T13:55:59;97512.28;;;-2.58;80.84
43155;BME280;34212;51.018;13.586;2022-12-16T14:01:26;97530.63;;;-2.72;81.00
43155;BME280;34212;51.018;13.586;2022-12-16T14:06:49;97534.91;;;-2.84;80.81
43155;BME280;34212;51.018;13.586;2022-12-16T14:12:22;97546.16;;;-2.96;80.99
43155;BME280;34212;51.018;13.586;2022-12-16T14:17:59;97539.28;;;-3.10;81.18
43155;BME280;34212;51.018;13.586;2022-12-16T14:23:41;97558.88;;;-3.17;80.90
43155;BME280;34212;51.018;13.586;2022-12-16T14:29:20;97561.78;;;-3.22;81.08
43155;BME280;34212;51.018;13.586;2022-12-16T14:34:40;97569.59;;;-3.22;81.27
43155;BME280;34212;51.018;13.586;2022-12-16T14:40:31;97578.25;;;-3.21;81.21
43155;BME280;34212;51.018;13.586;2022-12-16T14:45:51;97594.09;;;-3.25;81.25
43155;BME280;34212;51.018;13.586;2022-12-16T14:56:56;97605.69;;;-3.29;81.02
43155;BME280;34212;51.018;13.586;2022-12-16T15:02:27;97616.22;;;-3.30;80.97
43155;BME280;34212;51.018;13.586;2022-12-16T15:07:50;97621.81;;;-3.36;80.94
43155;BME280;34212;51.018;13.586;2022-12-16T15:13:15;97624.91;;;-3.44;80.39
43155;BME280;34212;51.018;13.586;2022-12-16T15:18:40;97626.97;;;-3.49;81.22
43155;BME280;34212;51.018;13.586;2022-12-16T15:24:10;97640.84;;;-3.49;81.06
43155;BME280;34212;51.018;13.586;2022-12-16T15:29:40;97650.72;;;-3.54;80.92
43155;BME280;34212;51.018;13.586;2022-12-16T15:35:01;97655.50;;;-3.60;81.00
43155;BME280;34212;51.018;13.586;2022-12-16T15:40:29;97670.28;;;-3.61;80.76
43155;BME280;34212;51.018;13.586;2022-12-16T15:45:50;97665.16;;;-3.62;81.13
43155;BME280;34212;51.018;13.586;2022-12-16T15:51:31;97681.44;;;-3.59;81.05
43155;BME280;34212;51.018;13.586;2022-12-16T15:57:01;97686.78;;;-3.60;80.93
43155;BME280;34212;51.018;13.586;2022-12-16T16:02:26;97708.75;;;-3.64;80.53
43155;BME280;34212;51.018;13.586;2022-12-16T16:07:46;97710.88;;;-3.71;81.00
43155;BME280;34212;51.018;13.586;2022-12-16T16:13:07;97704.81;;;-3.72;80.86
43155;BME280;34212;51.018;13.586;2022-12-16T16:18:27;97716.00;;;-3.69;81.02
43155;BME280;34212;51.018;13.586;2022-12-16T16:23:47;97714.69;;;-3.62;81.07
43155;BME280;34212;51.018;13.586;2022-12-16T16:29:09;97718.25;;;-3.63;80.78
43155;BME280;34212;51.018;13.586;2022-12-16T16:34:30;97722.44;;;-3.61;80.92
43155;BME280;34212;51.018;13.586;2022-12-16T16:39:50;97724.00;;;-3.58;81.24
43155;BME280;34212;51.018;13.586;2022-12-16T16:45:11;97726.13;;;-3.51;81.33
43155;BME280;34212;51.018;13.586;2022-12-16T16:50:31;97736.28;;;-3.46;80.78
43155;BME280;34212;51.018;13.586;2022-12-16T16:55:52;97744.00;;;-3.44;81.10
43155;BME280;34212;51.018;13.586;2022-12-16T17:01:20;97741.66;;;-3.49;80.91
43155;BME280;34212;51.018;13.586;2022-12-16T17:06:40;97754.19;;;-3.54;80.93
43155;BME280;34212;51.018;13.586;2022-12-16T17:12:00;97761.06;;;-3.53;81.13
43155;BME280;34212;51.018;13.586;2022-12-16T17:17:20;97768.50;;;-3.47;81.00
43155;BME280;34212;51.018;13.586;2022-12-16T17:22:40;97774.66;;;-3.48;80.75
43155;BME280;34212;51.018;13.586;2022-12-16T17:28:00;97776.69;;;-3.53;81.18
43155;BME280;34212;51.018;13.586;2022-12-16T17:33:21;97793.28;;;-3.54;81.09
43155;BME280;34212;51.018;13.586;2022-12-16T17:38:42;97796.25;;;-3.46;81.13
43155;BME280;34212;51.018;13.586;2022-12-16T17:44:02;97801.19;;;-3.41;80.99
43155;BME280;34212;51.018;13.586;2022-12-16T17:49:23;97801.41;;;-3.30;80.89
43155;BME280;34212;51.018;13.586;2022-12-16T17:54:43;97807.91;;;-3.23;80.83
43155;BME280;34212;51.018;13.586;2022-12-16T18:00:03;97816.06;;;-3.15;81.20
43155;BME280;34212;51.018;13.586;2022-12-16T18:05:23;97837.88;;;-3.16;80.93
43155;BME280;34212;51.018;13.586;2022-12-16T18:10:45;97839.47;;;-3.13;81.34
43155;BME280;34212;51.018;13.586;2022-12-16T18:16:10;97833.13;;;-3.09;80.74
43155;BME280;34212;51.018;13.586;2022-12-16T18:21:30;97834.72;;;-3.07;81.09
43155;BME280;34212;51.018;13.586;2022-12-16T18:26:51;97838.34;;;-2.95;81.38
43155;BME280;34212;51.018;13.586;2022-12-16T18:32:11;97840.00;;;-2.94;80.92
43155;BME280;34212;51.018;13.586;2022-12-16T18:37:35;97840.19;;;-2.97;81.27
43155;BME280;34212;51.018;13.586;2022-12-16T18:42:58;97849.50;;;-2.93;81.22
43155;BME280;34212;51.018;13.586;2022-12-16T18:48:17;97856.56;;;-2.81;80.90
43155;BME280;34212;51.018;13.586;2022-12-16T18:53:37;97858.34;;;-2.67;81.10
43155;BME280;34212;51.018;13.586;2022-12-16T18:58:57;97854.31;;;-2.58;81.18
43155;BME280;34212;51.018;13.586;2022-12-16T19:04:18;97868.75;;;-2.52;80.79
43155;BME280;34212;51.018;13.586;2022-12-16T19:09:38;97869.78;;;-2.55;80.88
43155;BME280;34212;51.018;13.586;2022-12-16T19:14:58;97861.22;;;-2.57;80.56
43155;BME280;34212;51.018;13.586;2022-12-16T19:20:22;97867.56;;;-2.61;80.43
43155;BME280;34212;51.018;13.586;2022-12-16T19:25:43;97873.69;;;-2.62;80.76
43155;BME280;34212;51.018;13.586;2022-12-16T19:31:03;97875.47;;;-2.63;80.80
43155;BME280;34212;51.018;13.586;2022-12-16T19:36:28;97886.94;;;-2.65;80.76
43155;BME280;34212;51.018;13.586;2022-12-16T19:41:48;97882.88;;;-2.69;80.55
43155;BME280;34212;51.018;13.586;2022-12-16T19:47:12;97888.91;;;-2.69;80.53
43155;BME280;34212;51.018;13.586;2022-12-16T19:52:32;97900.00;;;-2.65;80.71
43155;BME280;34212;51.018;13.586;2022-12-16T19:57:56;97901.91;;;-2.67;80.45
43155;BME280;34212;51.018;13.586;2022-12-16T20:03:19;97917.00;;;-2.72;80.67
43155;BME280;34212;51.018;13.586;2022-12-16T20:08:43;97930.03;;;-2.72;80.49
43155;BME280;34212;51.018;13.586;2022-12-16T20:14:04;97939.53;;;-2.71;80.84
43155;BME280;34212;51.018;13.586;2022-12-16T20:19:25;97947.00;;;-2.65;80.63
43155;BME280;34212;51.018;13.586;2022-12-16T20:24:45;97957.63;;;-2.68;80.69
43155;BME280;34212;51.018;13.586;2022-12-16T20:30:06;97973.47;;;-2.71;80.57
43155;BME280;34212;51.018;13.586;2022-12-16T20:35:26;97966.78;;;-2.75;80.59
43155;BME280;34212;51.018;13.586;2022-12-16T20:40:55;97972.38;;;-2.82;80.27
43155;BME280;34212;51.018;13.586;2022-12-16T20:46:15;97983.56;;;-2.80;80.41
43155;BME280;34212;51.018;13.586;2022-12-16T20:51:35;97983.56;;;-2.80;80.57
43155;BME280;34212;51.018;13.586;2022-12-16T20:56:56;97980.19;;;-2.82;80.21
43155;BME280;34212;51.018;13.586;2022-12-16T21:02:16;97987.00;;;-2.79;80.17
43155;BME280;34212;51.018;13.586;2022-12-16T21:07:36;97995.50;;;-2.75;80.56
43155;BME280;34212;51.018;13.586;2022-12-16T21:13:15;97994.38;;;-2.71;80.15
43155;BME280;34212;51.018;13.586;2022-12-16T21:18:35;98003.91;;;-2.70;80.58
43155;BME280;34212;51.018;13.586;2022-12-16T21:23:56;98009.47;;;-2.62;80.42
43155;BME280;34212;51.018;13.586;2022-12-16T21:29:16;98016.22;;;-2.58;80.15
43155;BME280;34212;51.018;13.586;2022-12-16T21:34:37;98027.13;;;-2.51;80.55
43155;BME280;34212;51.018;13.586;2022-12-16T21:39:57;98034.78;;;-2.48;80.44
43155;BME280;34212;51.018;13.586;2022-12-16T21:45:17;98039.53;;;-2.55;79.92
43155;BME280;34212;51.018;13.586;2022-12-16T21:50:40;98034.19;;;-2.53;80.40
43155;BME280;34212;51.018;13.586;2022-12-16T21:56:11;98049.03;;;-2.54;80.36
43155;BME280;34212;51.018;13.586;2022-12-16T22:01:35;98061.34;;;-2.56;80.12
43155;BME280;34212;51.018;13.586;2022-12-16T22:07:15;98072.16;;;-2.62;80.44
43155;BME280;34212;51.018;13.586;2022-12-16T22:12:35;98075.34;;;-2.57;80.47
43155;BME280;34212;51.018;13.586;2022-12-16T22:17:56;98076.09;;;-2.41;80.93
43155;BME280;34212;51.018;13.586;2022-12-16T22:23:19;98072.56;;;-2.40;80.15
43155;BME280;34212;51.018;13.586;2022-12-16T22:28:40;98070.88;;;-2.41;80.08
43155;BME280;34212;51.018;13.586;2022-12-16T22:34:00;98083.00;;;-2.40;80.49
43155;BME280;34212;51.018;13.586;2022-12-16T22:39:20;98083.84;;;-2.39;80.33
43155;BME280;34212;51.018;13.586;2022-12-16T22:44:45;98090.84;;;-2.40;80.40
43155;BME280;34212;51.018;13.586;2022-12-16T22:50:06;98098.31;;;-2.34;80.60
43155;BME280;34212;51.018;13.586;2022-12-16T22:55:26;98096.25;;;-2.28;80.24
43155;BME280;34212;51.018;13.586;2022-12-16T23:00:46;98102.78;;;-2.21;79.94
43155;BME280;34212;51.018;13.586;2022-12-16T23:06:07;98107.44;;;-2.12;80.21
43155;BME280;34212;51.018;13.586;2022-12-16T23:11:34;98109.97;;;-2.11;80.04
43155;BME280;34212;51.018;13.586;2022-12-16T23:16:57;98111.94;;;-2.14;80.31
43155;BME280;34212;51.018;13.586;2022-12-16T23:22:16;98111.75;;;-2.11;80.01
43155;BME280;34212;51.018;13.586;2022-12-16T23:27:36;98107.00;;;-2.04;80.19
43155;BME280;34212;51.018;13.586;2022-12-16T23:33:00;98107.81;;;-2.04;80.00
43155;BME280;34212;51.018;13.586;2022-12-16T23:38:21;98115.84;;;-2.07;79.74
43155;BME280;34212;51.018;13.586;2022-12-16T23:43:43;98116.22;;;-2.13;80.09
43155;BME280;34212;51.018;13.586;2022-12-16T23:49:04;98129.66;;;-2.19;80.19
43155;BME280;34212;51.018;13.586;2022-12-16T23:54:24;98132.44;;;-2.22;80.53
43155;BME280;34212;51.018;13.586;2022-12-16T23:59:44;98141.88;;;-2.20;80.14
